createdAt,value
2023-01-23T00:01:26.834Z,102462.27
2023-01-23T00:03:54.747Z,102463.02
2023-01-23T00:06:21.883Z,102463.84
2023-01-23T00:08:48.908Z,102462.65
2023-01-23T00:11:21.597Z,102467.63
2023-01-23T00:13:48.715Z,102469.61
2023-01-23T00:16:17.676Z,102474.30
2023-01-23T00:18:45.186Z,102474.73
2023-01-23T00:21:14.690Z,102473.62
2023-01-23T00:23:47.599Z,102472.91
2023-01-23T00:26:16.922Z,102475.05
2023-01-23T00:28:44.791Z,102477.64
2023-01-23T00:31:18.480Z,102479.25
2023-01-23T00:33:45.793Z,102482.36
2023-01-23T00:36:13.360Z,102482.73
2023-01-23T00:38:40.739Z,102479.83
2023-01-23T00:41:08.061Z,102477.93
2023-01-23T00:43:35.063Z,102474.93
2023-01-23T00:46:02.259Z,102473.27
2023-01-23T00:48:29.331Z,102470.02
2023-01-23T00:50:56.367Z,102470.09
2023-01-23T00:53:23.656Z,102470.84
2023-01-23T00:55:50.763Z,102469.35
2023-01-23T00:58:18.885Z,102469.45
2023-01-23T01:00:45.960Z,102471.62
2023-01-23T01:03:13.144Z,102473.02
2023-01-23T01:05:42.014Z,102476.10
2023-01-23T01:08:09.075Z,102476.63
2023-01-23T01:10:36.160Z,102479.83
2023-01-23T01:13:05.628Z,102474.17
2023-01-23T01:15:33.010Z,102470.44
2023-01-23T01:18:00.057Z,102471.05
2023-01-23T01:20:27.869Z,102467.05
2023-01-23T01:22:55.942Z,102469.83
2023-01-23T01:25:23.100Z,102468.20
2023-01-23T01:27:50.112Z,102463.30
2023-01-23T01:30:18.548Z,102457.45
2023-01-23T01:32:47.612Z,102460.08
2023-01-23T01:35:14.622Z,102463.69
2023-01-23T01:37:42.111Z,102458.66
2023-01-23T01:40:12.921Z,102458.80
2023-01-23T01:42:54.102Z,102457.27
2023-01-23T01:45:59.136Z,102457.14
2023-01-23T01:48:46.182Z,102457.90
2023-01-23T01:51:16.757Z,102462.75
2023-01-23T01:53:43.920Z,102464.08
2023-01-23T01:56:12.110Z,102464.73
2023-01-23T01:58:39.276Z,102466.20
2023-01-23T02:01:06.427Z,102467.17
2023-01-23T02:03:33.501Z,102464.79
2023-01-23T02:06:00.618Z,102461.38
2023-01-23T02:08:49.147Z,102461.77
2023-01-23T02:11:18.699Z,102460.86
2023-01-23T02:13:46.284Z,102462.97
2023-01-23T02:16:21.660Z,102465.91
2023-01-23T02:18:51.196Z,102458.92
2023-01-23T02:21:20.887Z,102460.20
2023-01-23T02:23:55.200Z,102457.81
2023-01-23T02:26:27.976Z,102454.90
2023-01-23T02:28:56.242Z,102451.95
2023-01-23T02:31:26.937Z,102454.52
2023-01-23T02:33:58.438Z,102449.52
2023-01-23T02:36:27.982Z,102449.29
2023-01-23T02:39:08.417Z,102451.48
2023-01-23T02:41:40.379Z,102444.27
2023-01-23T02:44:28.657Z,102442.63
2023-01-23T02:47:04.262Z,102444.63
2023-01-23T02:49:31.649Z,102443.78
2023-01-23T02:51:59.677Z,102443.98
2023-01-23T02:54:26.718Z,102437.31
2023-01-23T02:56:53.670Z,102441.84
2023-01-23T02:59:41.239Z,102445.65
2023-01-23T03:02:08.385Z,102447.35
2023-01-23T03:04:35.386Z,102448.80
2023-01-23T03:07:02.446Z,102447.48
2023-01-23T03:09:29.423Z,102444.56
2023-01-23T03:11:56.595Z,102445.16
2023-01-23T03:14:24.139Z,102444.92
2023-01-23T03:16:54.254Z,102446.89
2023-01-23T03:19:23.776Z,102445.45
2023-01-23T03:21:50.915Z,102444.70
2023-01-23T03:24:17.934Z,102448.05
2023-01-23T03:26:45.613Z,102447.02
2023-01-23T03:29:34.357Z,102448.14
2023-01-23T03:32:01.351Z,102448.23
2023-01-23T03:34:28.627Z,102455.19
2023-01-23T03:36:55.595Z,102458.66
2023-01-23T03:39:42.684Z,102463.91
2023-01-23T03:42:09.789Z,102466.45
2023-01-23T03:44:36.826Z,102464.40
2023-01-23T03:47:03.748Z,102465.66
2023-01-23T03:49:30.812Z,102462.86
2023-01-23T03:51:58.817Z,102466.13
2023-01-23T03:54:26.110Z,102465.02
2023-01-23T03:56:53.410Z,102463.23
2023-01-23T03:59:43.436Z,102459.88
2023-01-23T04:13:54.304Z,102466.98
2023-01-23T04:16:22.990Z,102471.45
2023-01-23T04:18:50.839Z,102472.09
2023-01-23T04:21:17.885Z,102472.41
2023-01-23T04:23:45.024Z,102479.37
2023-01-23T04:26:13.342Z,102477.39
2023-01-23T04:28:40.385Z,102480.92
2023-01-23T04:31:09.409Z,102485.48
2023-01-23T04:33:36.881Z,102486.45
2023-01-23T04:36:05.203Z,102489.16
2023-01-23T04:38:32.879Z,102488.04
2023-01-23T04:41:16.453Z,102489.52
2023-01-23T04:43:43.747Z,102493.56
2023-01-23T04:46:11.044Z,102493.01
2023-01-23T04:49:00.774Z,102496.84
2023-01-23T04:51:28.075Z,102498.92
2023-01-23T04:53:56.036Z,102497.23
2023-01-23T04:56:23.072Z,102497.86
2023-01-23T04:58:50.313Z,102499.78
2023-01-23T05:01:23.465Z,102502.97
2023-01-23T05:03:53.994Z,102500.78
2023-01-23T05:06:21.331Z,102501.60
2023-01-23T05:08:49.143Z,102503.02
2023-01-23T05:11:23.346Z,102505.31
2023-01-23T05:13:50.589Z,102512.71
2023-01-23T05:16:18.419Z,102512.23
2023-01-23T05:19:11.643Z,102513.23
2023-01-23T05:21:38.981Z,102514.67
2023-01-23T05:24:07.070Z,102520.89
2023-01-23T05:26:35.279Z,102524.09
2023-01-23T05:29:02.852Z,102523.80
2023-01-23T05:31:30.021Z,102528.23
2023-01-23T05:34:35.369Z,102526.46
2023-01-23T05:37:03.422Z,102527.95
2023-01-23T05:39:34.701Z,102529.02
2023-01-23T05:42:02.161Z,102530.28
2023-01-23T05:44:49.692Z,102529.83
2023-01-23T05:47:27.550Z,102531.25
2023-01-23T05:49:55.608Z,102531.29
2023-01-23T05:52:24.634Z,102534.48
2023-01-23T05:54:51.687Z,102533.50
2023-01-23T05:57:19.031Z,102536.61
2023-01-23T06:00:08.753Z,102542.58
2023-01-23T06:02:53.795Z,102547.64
2023-01-23T06:05:24.051Z,102549.76
2023-01-23T06:08:07.176Z,102550.73
2023-01-23T06:10:34.183Z,102548.41
2023-01-23T06:13:01.314Z,102550.98
2023-01-23T06:15:28.351Z,102554.92
2023-01-23T06:17:55.720Z,102551.88
2023-01-23T06:20:23.237Z,102550.64
2023-01-23T06:22:50.235Z,102546.35
2023-01-23T06:25:18.586Z,102549.94
2023-01-23T06:27:45.583Z,102549.67
2023-01-23T06:30:13.435Z,102550.09
2023-01-23T06:32:42.124Z,102553.59
2023-01-23T06:35:10.043Z,102554.13
2023-01-23T06:37:40.009Z,102557.48
2023-01-23T06:40:14.679Z,102562.95
2023-01-23T06:42:47.321Z,102566.48
2023-01-23T06:45:14.459Z,102570.02
2023-01-23T06:47:41.489Z,102569.83
2023-01-23T06:50:09.609Z,102570.44
2023-01-23T06:52:37.764Z,102571.13
2023-01-23T06:55:05.376Z,102578.79
2023-01-23T06:57:33.811Z,102580.02
2023-01-23T07:00:01.917Z,102578.53
2023-01-23T07:02:30.198Z,102582.02
2023-01-23T07:04:57.305Z,102586.94
2023-01-23T07:07:24.325Z,102590.27
2023-01-23T07:09:51.361Z,102586.67
2023-01-23T07:12:25.669Z,102589.65
2023-01-23T07:14:52.730Z,102591.11
2023-01-23T07:17:23.887Z,102592.77
2023-01-23T07:19:51.166Z,102594.70
2023-01-23T07:22:19.326Z,102596.27
2023-01-23T07:24:46.327Z,102598.64
2023-01-23T07:27:13.461Z,102599.43
2023-01-23T07:29:41.260Z,102605.30
2023-01-23T07:32:10.837Z,102603.05
2023-01-23T07:34:38.272Z,102608.14
2023-01-23T07:37:05.305Z,102610.15
2023-01-23T07:39:32.358Z,102610.18
2023-01-23T07:41:59.738Z,102603.56
2023-01-23T07:44:28.395Z,102602.70
2023-01-23T07:46:55.411Z,102603.56
2023-01-23T07:49:22.440Z,102603.88
2023-01-23T07:51:50.579Z,102605.80
2023-01-23T07:54:17.763Z,102605.47
2023-01-23T07:56:44.828Z,102611.97
2023-01-23T07:59:13.201Z,102616.77
2023-01-23T08:01:40.236Z,102614.89
2023-01-23T08:04:07.475Z,102618.06
2023-01-23T08:06:34.675Z,102619.25
2023-01-23T08:09:01.621Z,102621.27
2023-01-23T08:11:28.616Z,102619.98
2023-01-23T08:13:55.590Z,102621.02
2023-01-23T08:16:22.664Z,102622.13
2023-01-23T08:18:49.731Z,102623.85
2023-01-23T08:21:16.773Z,102624.30
2023-01-23T08:23:44.003Z,102627.52
2023-01-23T08:26:11.654Z,102629.86
2023-01-23T10:00:07.039Z,102623.29
2023-01-23T10:02:34.027Z,102618.05
2023-01-23T10:05:03.130Z,102621.35
2023-01-23T10:07:52.265Z,102623.23
2023-01-23T10:10:55.360Z,102622.17
2023-01-23T10:13:36.910Z,102621.45
2023-01-23T10:16:26.190Z,102620.05
2023-01-23T10:19:08.482Z,102615.98
2023-01-23T10:22:03.572Z,102616.08
2023-01-23T10:25:10.738Z,102610.27
2023-01-23T10:27:44.105Z,102604.31
2023-01-23T10:30:28.725Z,102605.69
2023-01-23T10:33:09.840Z,102596.74
2023-01-23T10:36:21.547Z,102596.50
2023-01-23T10:39:10.101Z,102590.80
2023-01-23T10:41:37.075Z,102584.27
2023-01-23T10:44:10.564Z,102583.83
2023-01-23T10:46:59.076Z,102583.25
2023-01-23T10:49:31.922Z,102585.19
2023-01-23T10:52:01.934Z,102579.08
2023-01-23T10:54:32.261Z,102576.86
2023-01-23T10:57:17.595Z,102575.39
2023-01-23T11:00:08.608Z,102576.84
2023-01-23T11:02:37.397Z,102571.30
2023-01-23T11:05:51.535Z,102578.61
2023-01-23T11:08:29.987Z,102576.16
2023-01-23T11:11:27.688Z,102574.64
2023-01-23T11:14:13.440Z,102569.04
2023-01-23T11:16:40.410Z,102569.91
2023-01-23T11:19:11.320Z,102570.23
2023-01-23T11:21:55.830Z,102568.02
2023-01-23T11:24:39.278Z,102569.81
2023-01-23T11:27:33.563Z,102573.25
2023-01-23T11:30:27.807Z,102573.11
2023-01-23T11:33:40.274Z,102573.65
2023-01-23T11:36:17.465Z,102565.52
2023-01-23T11:38:52.999Z,102564.13
2023-01-23T16:02:33.146Z,102641.71
2023-01-23T16:05:03.473Z,102634.20
2023-01-23T16:07:34.890Z,102635.70
2023-01-23T16:10:25.076Z,102636.38
2023-01-23T16:12:55.079Z,102632.63
2023-01-23T16:15:27.921Z,102635.81
2023-01-23T16:17:56.751Z,102631.20
2023-01-23T16:20:43.673Z,102625.55
2023-01-23T16:23:31.230Z,102627.27
2023-01-23T16:26:04.554Z,102626.89
2023-01-23T16:28:33.264Z,102628.33
2023-01-23T16:31:02.029Z,102629.91
2023-01-23T16:33:31.729Z,102630.16
2023-01-23T16:36:00.262Z,102634.18
2023-01-23T16:38:28.970Z,102635.64
2023-01-23T16:40:59.796Z,102636.86
2023-01-23T16:43:28.216Z,102634.70
2023-01-23T16:45:57.987Z,102645.84
2023-01-23T16:48:28.041Z,102637.84
2023-01-23T16:51:05.653Z,102639.29
2023-01-23T16:53:38.511Z,102638.23
2023-01-23T16:56:09.205Z,102641.54
2023-01-23T16:58:39.544Z,102643.54
2023-01-23T17:01:10.770Z,102637.60
2023-01-23T17:03:41.427Z,102637.10
2023-01-23T17:06:16.341Z,102640.02
2023-01-23T17:08:44.713Z,102642.59
2023-01-23T17:11:18.796Z,102645.35
2023-01-23T17:13:48.090Z,102646.45
2023-01-23T17:16:26.999Z,102649.08
2023-01-23T17:18:57.553Z,102647.59
2023-01-23T17:21:27.868Z,102650.27
2023-01-23T17:23:56.144Z,102644.36
2023-01-23T17:26:24.450Z,102643.41
2023-01-23T17:28:52.842Z,102648.60
2023-01-23T17:31:25.169Z,102648.45
2023-01-23T17:33:56.038Z,102645.73
2023-01-23T17:36:27.601Z,102645.55
2023-01-23T17:38:57.387Z,102649.99
2023-01-23T17:41:29.118Z,102650.59
2023-01-23T17:43:57.753Z,102648.67
2023-01-23T17:46:28.144Z,102652.33
2023-01-23T17:48:56.541Z,102653.70
2023-01-23T17:51:25.431Z,102652.27
2023-01-23T17:53:53.777Z,102649.80
2023-01-23T17:56:22.195Z,102648.01
2023-01-23T17:58:50.414Z,102644.43
2023-01-23T18:01:23.991Z,102643.32
2023-01-23T18:03:52.448Z,102646.00
2023-01-23T18:06:20.621Z,102646.30
2023-01-23T18:08:48.877Z,102645.37
2023-01-23T18:11:24.002Z,102648.08
2023-01-23T18:14:17.192Z,102648.08
2023-01-23T18:16:45.749Z,102646.33
2023-01-23T18:19:22.247Z,102645.39
2023-01-23T18:21:52.748Z,102642.36
2023-01-23T18:24:31.518Z,102643.29
2023-01-23T18:27:16.336Z,102644.08
2023-01-23T18:30:06.614Z,102643.98
2023-01-23T18:32:50.936Z,102639.33
2023-01-23T18:35:29.488Z,102636.04
2023-01-23T18:38:12.946Z,102640.04
2023-01-23T18:41:19.071Z,102635.95
2023-01-23T18:44:21.423Z,102634.06
2023-01-23T18:46:49.958Z,102634.52
2023-01-23T18:49:32.448Z,102635.58
2023-01-23T18:52:11.622Z,102632.08
2023-01-23T18:54:44.590Z,102633.38
2023-01-23T18:57:41.187Z,102635.18
2023-01-23T19:00:17.270Z,102641.67
2023-01-23T19:02:52.634Z,102644.38
2023-01-23T19:05:22.607Z,102642.97
2023-01-23T19:07:51.360Z,102642.58
2023-01-23T19:10:24.090Z,102641.67
2023-01-23T19:12:59.671Z,102640.82
2023-01-23T19:15:31.873Z,102638.11
2023-01-23T19:18:05.804Z,102644.48
2023-01-23T19:20:45.324Z,102638.34
2023-01-23T19:23:39.642Z,102635.45
2023-01-23T19:26:10.408Z,102636.35
2023-01-23T19:28:39.457Z,102637.52
2023-01-23T19:31:10.099Z,102635.35
2023-01-23T19:33:38.525Z,102632.67
2023-01-23T19:36:11.484Z,102633.22
2023-01-23T19:38:40.712Z,102632.70
2023-01-23T19:41:33.324Z,102634.64
2023-01-23T19:44:03.230Z,102638.08
2023-01-23T19:46:34.063Z,102639.52
2023-01-23T19:49:03.943Z,102637.68
2023-01-23T19:51:32.556Z,102639.14
2023-01-23T19:54:00.985Z,102640.18
2023-01-23T19:56:30.371Z,102639.45
2023-01-23T19:58:58.583Z,102633.84
2023-01-23T20:01:38.824Z,102632.83
2023-01-23T22:24:42.117Z,102621.92
2023-01-23T22:27:10.358Z,102618.33
2023-01-23T22:29:38.700Z,102620.98
2023-01-23T22:32:07.305Z,102624.95
2023-01-23T22:34:35.588Z,102624.78
2023-01-23T22:37:03.723Z,102623.64
2023-01-23T22:39:31.887Z,102623.50
2023-01-23T22:42:00.072Z,102622.54
